createdAt,value
2018-12-12T00:02:33.494Z,11.13
2018-12-12T00:07:40.549Z,11.43
2018-12-12T00:12:45.655Z,12.83
2018-12-12T00:17:51.125Z,13.53
2018-12-12T00:22:55.940Z,12.40
2018-12-12T00:28:00.991Z,10.90
2018-12-12T00:33:05.805Z,12.97
2018-12-12T00:38:10.683Z,8.93
2018-12-12T00:43:15.715Z,9.43
2018-12-12T00:48:20.672Z,10.10
2018-12-12T00:53:25.493Z,10.73
2018-12-12T00:58:30.563Z,11.23
2018-12-12T01:03:35.529Z,9.90
2018-12-12T01:08:40.480Z,10.30
2018-12-12T01:13:45.311Z,9.30
2018-12-12T01:18:50.245Z,8.33
2018-12-12T01:23:55.092Z,10.13
2018-12-12T01:29:00.050Z,7.57
2018-12-12T01:34:05.086Z,7.27
2018-12-12T01:39:10.052Z,8.17
2018-12-12T01:44:15.090Z,7.97
2018-12-12T01:49:20.064Z,8.87
2018-12-12T01:54:24.984Z,7.30
2018-12-12T01:59:29.962Z,8.30
2018-12-12T02:04:35.936Z,8.17
2018-12-12T02:09:40.755Z,7.07
2018-12-12T02:14:45.706Z,9.03
2018-12-12T02:19:50.548Z,8.50
2018-12-12T02:24:55.505Z,7.37
2018-12-12T02:30:00.490Z,8.60
2018-12-12T02:35:05.759Z,10.77
2018-12-12T02:40:10.632Z,7.47
2018-12-12T02:45:15.712Z,10.37
2018-12-12T02:50:20.569Z,9.93
2018-12-12T02:55:25.599Z,10.97
2018-12-12T03:00:30.541Z,9.67
2018-12-12T03:05:35.367Z,12.00
2018-12-12T03:10:40.321Z,13.83
2018-12-12T03:15:45.208Z,13.27
2018-12-12T03:20:50.046Z,16.13
2018-12-12T03:25:55.003Z,15.00
2018-12-12T03:30:59.946Z,14.67
2018-12-12T03:36:04.775Z,11.90
2018-12-12T03:41:09.685Z,14.00
2018-12-12T03:46:14.572Z,14.27
2018-12-12T03:51:19.411Z,13.10
2018-12-12T03:56:24.371Z,15.37
2018-12-12T04:01:29.416Z,14.97
2018-12-12T04:06:34.474Z,16.10
2018-12-12T04:11:39.378Z,15.60
2018-12-12T04:16:44.352Z,13.30
2018-12-12T04:21:49.444Z,14.57
2018-12-12T04:26:54.461Z,13.17
2018-12-12T04:31:59.324Z,11.73
2018-12-12T04:37:04.252Z,11.30
2018-12-12T04:42:09.196Z,12.53
2018-12-12T04:47:14.229Z,8.60
2018-12-12T04:52:19.092Z,9.23
2018-12-12T04:57:24.151Z,8.20
2018-12-12T05:02:28.870Z,10.67
2018-12-12T05:07:33.814Z,9.87
2018-12-12T05:12:38.772Z,13.77
2018-12-12T05:17:43.727Z,14.23
2018-12-12T05:22:49.415Z,14.70
2018-12-12T05:27:54.343Z,12.73
2018-12-12T05:32:59.406Z,16.77
2018-12-12T05:38:04.216Z,14.20
2018-12-12T05:43:10.223Z,14.80
2018-12-12T05:48:15.159Z,12.50
2018-12-12T05:53:20.006Z,10.93
2018-12-12T05:58:24.918Z,9.97
2018-12-12T06:03:29.787Z,10.03
2018-12-12T06:08:34.670Z,12.27
2018-12-12T06:13:39.700Z,13.03
2018-12-12T06:18:44.549Z,15.03
2018-12-12T06:23:49.592Z,15.70
2018-12-12T06:28:54.414Z,13.30
2018-12-12T06:33:59.373Z,10.87
2018-12-12T06:39:06.113Z,8.77
2018-12-12T06:44:11.942Z,6.63
2018-12-12T06:49:17.081Z,6.53
2018-12-12T06:54:21.891Z,10.13
2018-12-12T06:59:26.683Z,16.83
2018-12-12T07:04:31.649Z,19.33
2018-12-12T07:09:36.451Z,18.47
2018-12-12T07:14:41.388Z,17.33
2018-12-12T07:19:46.362Z,15.97
2018-12-12T07:24:51.314Z,11.97
2018-12-12T07:29:56.376Z,16.30
2018-12-12T07:35:01.317Z,13.87
2018-12-12T07:40:06.411Z,17.57
2018-12-12T07:45:12.528Z,15.10
2018-12-12T07:50:19.551Z,15.97
2018-12-12T07:55:29.929Z,13.60
2018-12-12T08:00:34.971Z,12.40
2018-12-12T08:05:39.805Z,14.20
2018-12-12T08:10:44.659Z,15.50
2018-12-12T08:15:49.496Z,19.37
2018-12-12T08:20:54.452Z,20.03
2018-12-12T08:25:59.576Z,17.87
2018-12-12T08:31:04.464Z,17.20
2018-12-12T08:36:09.296Z,21.30
2018-12-12T08:41:14.279Z,14.50
2018-12-12T08:46:19.081Z,12.33
2018-12-12T08:51:24.131Z,14.83
2018-12-12T08:56:28.996Z,14.13
2018-12-12T09:01:34.189Z,13.33
2018-12-12T09:06:39.107Z,16.70
2018-12-12T09:11:44.036Z,16.87
2018-12-12T09:16:48.977Z,13.77
2018-12-12T09:21:55.577Z,15.47
2018-12-12T09:27:00.498Z,18.20
2018-12-12T09:32:05.411Z,33.93
2018-12-12T09:37:12.465Z,16.40
2018-12-12T09:42:17.415Z,16.37
2018-12-12T09:47:22.583Z,18.10
2018-12-12T09:52:27.523Z,17.87
2018-12-12T09:57:34.529Z,20.23
2018-12-12T10:02:39.460Z,18.63
2018-12-12T10:07:44.527Z,20.03
2018-12-12T10:12:49.449Z,16.80
2018-12-12T10:17:54.407Z,16.37
2018-12-12T10:22:59.361Z,18.17
2018-12-12T10:28:04.311Z,17.13
2018-12-12T10:33:09.215Z,20.27
2018-12-12T10:38:14.189Z,20.37
2018-12-12T10:43:18.951Z,18.43
2018-12-12T10:48:23.782Z,21.73
2018-12-12T10:53:28.828Z,21.07
2018-12-12T10:58:33.670Z,21.40
2018-12-12T11:03:44.360Z,20.43
2018-12-12T11:08:49.610Z,19.77
2018-12-12T11:13:54.581Z,17.43
2018-12-12T11:18:59.623Z,18.73
2018-12-12T11:24:04.569Z,18.53
2018-12-12T11:29:09.723Z,17.13
2018-12-12T11:34:14.667Z,19.10
2018-12-12T11:39:19.495Z,14.87
2018-12-12T11:44:24.455Z,18.37
2018-12-12T11:49:29.423Z,18.23
2018-12-12T11:54:34.362Z,17.00
2018-12-12T11:59:39.404Z,17.83
2018-12-12T12:04:44.295Z,14.20
2018-12-12T12:09:50.236Z,19.33
2018-12-12T12:14:55.072Z,15.70
2018-12-12T12:20:00.028Z,14.37
2018-12-12T12:25:05.469Z,15.50
2018-12-12T12:30:11.452Z,13.77
2018-12-12T12:35:16.517Z,16.63
2018-12-12T12:40:21.471Z,14.73
2018-12-12T12:45:26.395Z,14.83
2018-12-12T12:50:31.347Z,15.60
2018-12-12T12:55:36.400Z,13.83
2018-12-12T13:00:41.333Z,13.90
2018-12-12T13:05:46.261Z,16.00
2018-12-12T13:10:51.238Z,18.97
2018-12-12T13:15:56.334Z,15.63
2018-12-12T13:21:02.311Z,25.07
2018-12-12T13:26:07.207Z,16.63
2018-12-12T13:31:12.263Z,17.60
2018-12-12T13:36:17.228Z,17.77
2018-12-12T13:41:22.124Z,18.80
2018-12-12T13:46:26.903Z,18.37
2018-12-12T13:51:31.957Z,19.90
2018-12-12T13:56:36.901Z,24.80
2018-12-12T14:01:41.761Z,20.20
2018-12-12T14:06:46.702Z,21.03
2018-12-12T14:11:51.646Z,22.93
2018-12-12T14:16:56.495Z,20.93
2018-12-12T14:22:01.412Z,25.13
2018-12-12T14:27:06.365Z,22.00
2018-12-12T14:32:11.244Z,21.37
2018-12-12T14:37:16.180Z,22.57
2018-12-12T14:42:21.251Z,27.37
2018-12-12T14:47:26.187Z,27.00
2018-12-12T14:52:31.108Z,24.90
2018-12-12T14:57:37.671Z,26.13
2018-12-12T15:02:42.557Z,24.13
2018-12-12T15:07:47.396Z,23.87
2018-12-12T15:12:52.263Z,35.43
2018-12-12T15:17:57.216Z,28.73
2018-12-12T15:23:02.148Z,26.17
2018-12-12T15:28:07.060Z,25.73
2018-12-12T15:33:12.028Z,24.10
2018-12-12T15:38:16.987Z,25.60
2018-12-12T15:43:21.949Z,28.17
2018-12-12T15:48:26.985Z,36.70
2018-12-12T15:53:31.848Z,47.23
2018-12-12T15:58:36.791Z,39.00
2018-12-12T16:03:41.651Z,33.60
2018-12-12T16:08:46.488Z,35.93
2018-12-12T16:13:51.574Z,43.40
2018-12-12T16:18:56.678Z,38.83
2018-12-12T16:24:01.635Z,37.73
2018-12-12T16:29:06.653Z,50.30
2018-12-12T16:34:11.538Z,35.47
2018-12-12T16:39:16.563Z,40.37
2018-12-12T16:44:21.419Z,44.50
2018-12-12T16:49:45.134Z,80.30
2018-12-12T16:54:49.957Z,60.43
2018-12-12T16:59:54.871Z,57.73
2018-12-12T17:05:02.400Z,53.23
2018-12-12T17:10:10.808Z,53.40
2018-12-12T17:15:15.785Z,36.30
2018-12-12T17:20:22.180Z,36.90
2018-12-12T17:25:27.352Z,30.23
2018-12-12T17:30:32.357Z,28.13
2018-12-12T17:35:37.717Z,27.40
2018-12-12T17:40:42.436Z,35.77
2018-12-12T17:45:46.992Z,33.30
2018-12-12T17:50:51.554Z,31.47
2018-12-12T17:55:56.083Z,28.50
2018-12-12T18:01:00.753Z,29.50
2018-12-12T18:06:07.378Z,30.67
2018-12-12T18:11:11.992Z,31.93
2018-12-12T18:16:16.573Z,31.83
2018-12-12T18:21:21.496Z,35.37
2018-12-12T18:26:28.159Z,34.73
2018-12-12T18:31:32.794Z,41.20
2018-12-12T18:36:54.361Z,37.27
2018-12-12T18:41:58.996Z,42.63
2018-12-12T18:47:23.406Z,41.40
2018-12-12T18:52:27.971Z,40.87
2018-12-12T18:57:32.545Z,39.20
2018-12-12T19:02:37.208Z,37.77
2018-12-12T19:07:43.012Z,40.83
2018-12-12T19:12:47.821Z,35.43
2018-12-12T19:17:52.825Z,40.33
2018-12-12T19:22:57.679Z,41.87
2018-12-12T19:28:02.313Z,41.90
2018-12-12T19:33:07.063Z,42.03
2018-12-12T19:38:11.691Z,45.57
2018-12-12T19:43:16.266Z,44.23
2018-12-12T19:48:21.924Z,40.80
2018-12-12T19:53:26.548Z,41.50
2018-12-12T19:58:31.159Z,42.30
2018-12-12T20:03:35.758Z,42.20
2018-12-12T20:08:40.347Z,43.20
2018-12-12T20:13:44.916Z,39.00
2018-12-12T20:18:49.577Z,47.20
2018-12-12T20:23:54.149Z,43.93
2018-12-12T20:28:58.727Z,42.07
2018-12-12T20:34:03.298Z,44.20
2018-12-12T20:39:08.384Z,41.83
2018-12-12T20:44:14.163Z,47.43
2018-12-12T20:49:18.831Z,45.50
2018-12-12T20:54:23.377Z,47.27
2018-12-12T20:59:27.908Z,53.03
2018-12-12T21:04:32.573Z,48.90
2018-12-12T21:09:37.134Z,49.00
2018-12-12T21:14:41.763Z,45.50
2018-12-12T21:19:46.350Z,40.20
2018-12-12T21:24:51.796Z,48.33
2018-12-12T21:29:56.368Z,46.73
2018-12-12T21:35:00.959Z,48.27
2018-12-12T21:40:05.905Z,50.00
2018-12-12T21:45:10.496Z,43.17
2018-12-12T21:50:15.178Z,44.07
2018-12-12T21:55:19.766Z,44.47
2018-12-12T22:00:24.317Z,38.73
2018-12-12T22:05:28.945Z,45.40
2018-12-12T22:10:33.521Z,42.87
2018-12-12T22:15:38.078Z,42.30
2018-12-12T22:20:42.666Z,42.90
2018-12-12T22:25:47.268Z,39.03
2018-12-12T22:30:51.875Z,37.70
2018-12-12T22:35:56.405Z,41.77
2018-12-12T22:41:00.950Z,46.47
2018-12-12T22:46:05.528Z,42.00
2018-12-12T22:51:10.130Z,37.87
2018-12-12T22:56:14.745Z,36.87
2018-12-12T23:01:24.217Z,37.30
2018-12-12T23:06:28.881Z,40.70
2018-12-12T23:11:33.571Z,40.70
2018-12-12T23:16:38.145Z,40.87
2018-12-12T23:21:42.742Z,40.10
2018-12-12T23:26:53.636Z,41.23
2018-12-12T23:31:58.210Z,39.23
2018-12-12T23:37:02.768Z,38.80
2018-12-12T23:42:07.337Z,40.90
2018-12-12T23:47:11.904Z,39.63
2018-12-12T23:52:16.490Z,39.93
2018-12-12T23:57:21.066Z,37.77
